Onde está Escola Práctica de Artilharia en Portugal?

Escola Práctica de Artilharia está situado na região Evora em Portugal!

Buscar o nome de uma cidade:

Escorca, Escondillo, Escobares, Escoublac, Escobias

Aqui você vai encontrar a localização de Escola Práctica de Artilharia em um mapa.
Para ver como ele atualmente parece, abaixo estão algumas fotos da região, com webcams online.
Você também pode encontrar a distância para as principais cidades da região e de cidades do resto do Portugal.

Todos os lugares do mundo chamado .

new

Onde está Escola Práctica de Artilharia no mapa?


Webcams perto Escola Práctica de Artilharia

Vasco Carão > South: Garrocheira, Benavente - Airport.


Vasco Carão > South: Garrocheira, Benavente - Airport - Dia
Actual
Vasco Carão > South: Garrocheira, Benavente - Airport - Actual

Benavente > North-East: AIrport, METAR: BENAV 180005Z 36004KT 17/14 Q1015.


Benavente > North-East: AIrport, METAR: BENAV 180005Z 36004KT 17/14 Q1015 - Dia
Actual
Benavente > North-East: AIrport, METAR: BENAV 180005Z 36004KT 17/14 Q1015 - Actual

Comporta: Distrito de - Praia do Carvalhal°.


Comporta: Distrito de - Praia do Carvalhal° - Dia
Actual
Comporta: Distrito de - Praia do Carvalhal° - Actual

Webcams provided by webcams.travel

Distâncias

Onde está Escola Práctica de Artilharia em relação a outros lugares?

Top 10 cidades em Evora e distância de Escola Práctica de Artilharia.

Cidade#Populaçãokmmilhas
Évora1458515031
Montemor-o-Novo2128542113
Vendas Novas31124800
Estremoz493497748
Reguengos de Monsaraz572178553
Redondo658457949
Vila Viçosa754849056
Borba845868955
Adaval9-7446
Agua d' Alte10-7748

Top 10 cidades em Portugal e distância de Escola Práctica de Artilharia.

Cidade # Populaçãokmmilhas
Lisbon15177986037
Porto2249630275171
Amadora31788566943
Braga4121393319198
Setúbal51171094226
Coimbra6106580171106
Queluz71033986943
Funchal8980411015631
Vila Nova de Gaia970810274170
Loures10662306440